sensor_id;sensor_type;location;lat;lon;timestamp;temperature;humidity
69901;DHT22;57183;50.930;5.406;2022-08-03T00:00:47;20.90;99.90
69901;DHT22;57183;50.930;5.406;2022-08-03T00:03:12;20.90;99.90
69901;DHT22;57183;50.930;5.406;2022-08-03T00:05:38;20.90;99.90
69901;DHT22;57183;50.930;5.406;2022-08-03T00:08:04;20.90;99.90
69901;DHT22;57183;50.930;5.406;2022-08-03T00:10:30;20.80;99.90
69901;DHT22;57183;50.930;5.406;2022-08-03T00:12:56;20.80;99.90
69901;DHT22;57183;50.930;5.406;2022-08-03T00:15:21;20.80;99.90
69901;DHT22;57183;50.930;5.406;2022-08-03T00:17:47;20.70;99.90
69901;DHT22;57183;50.930;5.406;2022-08-03T00:20:12;20.60;99.90
69901;DHT22;57183;50.930;5.406;2022-08-03T00:22:38;20.50;99.90
69901;DHT22;57183;50.930;5.406;2022-08-03T00:25:04;20.50;99.90
69901;DHT22;57183;50.930;5.406;2022-08-03T00:27:30;20.40;99.90
69901;DHT22;57183;50.930;5.406;2022-08-03T00:29:55;20.40;99.90
69901;DHT22;57183;50.930;5.406;2022-08-03T00:32:21;20.30;99.90
69901;DHT22;57183;50.930;5.406;2022-08-03T00:34:47;20.30;99.90
69901;DHT22;57183;50.930;5.406;2022-08-03T00:37:12;20.20;99.90
69901;DHT22;57183;50.930;5.406;2022-08-03T00:39:38;20.20;99.90
69901;DHT22;57183;50.930;5.406;2022-08-03T00:42:05;20.20;99.90
69901;DHT22;57183;50.930;5.406;2022-08-03T00:44:31;20.30;99.90
69901;DHT22;57183;50.930;5.406;2022-08-03T00:47:03;20.20;99.90
69901;DHT22;57183;50.930;5.406;2022-08-03T00:49:28;20.30;99.90
69901;DHT22;57183;50.930;5.406;2022-08-03T00:51:54;20.40;99.90
69901;DHT22;57183;50.930;5.406;2022-08-03T00:54:20;20.60;99.90
69901;DHT22;57183;50.930;5.406;2022-08-03T00:56:48;20.60;99.90
69901;DHT22;57183;50.930;5.406;2022-08-03T00:59:15;20.50;99.90
69901;DHT22;57183;50.930;5.406;2022-08-03T01:01:40;20.40;99.90
69901;DHT22;57183;50.930;5.406;2022-08-03T01:04:06;20.20;99.90
69901;DHT22;57183;50.930;5.406;2022-08-03T01:07:07;20.10;99.90
69901;DHT22;57183;50.930;5.406;2022-08-03T01:15:23;19.90;99.90
69901;DHT22;57183;50.930;5.406;2022-08-03T01:20:23;19.80;99.90
69901;DHT22;57183;50.930;5.406;2022-08-03T01:23:32;19.70;99.90
69901;DHT22;57183;50.930;5.406;2022-08-03T01:29:05;19.50;99.90
69901;DHT22;57183;50.930;5.406;2022-08-03T01:31:40;19.60;99.90
69901;DHT22;57183;50.930;5.406;2022-08-03T01:34:09;19.50;99.90
69901;DHT22;57183;50.930;5.406;2022-08-03T01:36:42;19.50;99.90
69901;DHT22;57183;50.930;5.406;2022-08-03T01:39:09;19.40;99.90
69901;DHT22;57183;50.930;5.406;2022-08-03T01:41:51;19.40;99.90
69901;DHT22;57183;50.930;5.406;2022-08-03T01:44:20;19.30;99.90
69901;DHT22;57183;50.930;5.406;2022-08-03T01:46:47;19.40;99.90
69901;DHT22;57183;50.930;5.406;2022-08-03T01:49:16;19.30;99.90
69901;DHT22;57183;50.930;5.406;2022-08-03T01:51:44;19.30;99.90
69901;DHT22;57183;50.930;5.406;2022-08-03T01:54:12;19.30;99.90
69901;DHT22;57183;50.930;5.406;2022-08-03T01:56:39;19.30;99.90
69901;DHT22;57183;50.930;5.406;2022-08-03T01:59:06;19.20;99.90
69901;DHT22;57183;50.930;5.406;2022-08-03T02:01:34;19.20;99.90
69901;DHT22;57183;50.930;5.406;2022-08-03T02:04:02;19.10;99.90
69901;DHT22;57183;50.930;5.406;2022-08-03T02:06:31;19.10;99.90
69901;DHT22;57183;50.930;5.406;2022-08-03T02:08:59;19.00;99.90
69901;DHT22;57183;50.930;5.406;2022-08-03T02:11:26;19.00;99.90
69901;DHT22;57183;50.930;5.406;2022-08-03T02:13:52;18.90;99.90
69901;DHT22;57183;50.930;5.406;2022-08-03T02:16:21;18.90;99.90
69901;DHT22;57183;50.930;5.406;2022-08-03T02:18:47;18.90;99.90
69901;DHT22;57183;50.930;5.406;2022-08-03T02:21:13;18.90;99.90
69901;DHT22;57183;50.930;5.406;2022-08-03T02:23:40;19.00;99.90
69901;DHT22;57183;50.930;5.406;2022-08-03T02:26:09;19.00;99.90
69901;DHT22;57183;50.930;5.406;2022-08-03T02:28:39;19.00;99.90
69901;DHT22;57183;50.930;5.406;2022-08-03T02:31:12;18.90;99.90
69901;DHT22;57183;50.930;5.406;2022-08-03T02:33:42;19.00;99.90
69901;DHT22;57183;50.930;5.406;2022-08-03T02:36:10;19.00;99.90
69901;DHT22;57183;50.930;5.406;2022-08-03T02:38:41;18.90;99.90
69901;DHT22;57183;50.930;5.406;2022-08-03T02:41:16;18.90;99.90
69901;DHT22;57183;50.930;5.406;2022-08-03T02:43:45;18.70;99.90
69901;DHT22;57183;50.930;5.406;2022-08-03T02:46:17;18.70;99.90
69901;DHT22;57183;50.930;5.406;2022-08-03T02:48:45;18.60;99.90
69901;DHT22;57183;50.930;5.406;2022-08-03T02:51:13;18.50;99.90
69901;DHT22;57183;50.930;5.406;2022-08-03T02:53:40;18.50;99.90
69901;DHT22;57183;50.930;5.406;2022-08-03T02:56:07;18.60;99.90
69901;DHT22;57183;50.930;5.406;2022-08-03T02:58:34;18.60;99.90
69901;DHT22;57183;50.930;5.406;2022-08-03T03:01:01;18.70;99.90
69901;DHT22;57183;50.930;5.406;2022-08-03T03:03:28;18.70;99.90
69901;DHT22;57183;50.930;5.406;2022-08-03T03:05:54;18.80;99.90
69901;DHT22;57183;50.930;5.406;2022-08-03T03:08:20;18.90;99.90
69901;DHT22;57183;50.930;5.406;2022-08-03T03:10:47;19.10;99.90
69901;DHT22;57183;50.930;5.406;2022-08-03T03:13:14;19.10;99.90
69901;DHT22;57183;50.930;5.406;2022-08-03T03:15:41;19.00;99.90
69901;DHT22;57183;50.930;5.406;2022-08-03T03:18:08;18.80;99.90
69901;DHT22;57183;50.930;5.406;2022-08-03T03:20:36;18.70;99.90
69901;DHT22;57183;50.930;5.406;2022-08-03T03:23:04;18.50;99.90
69901;DHT22;57183;50.930;5.406;2022-08-03T03:25:31;18.50;99.90
69901;DHT22;57183;50.930;5.406;2022-08-03T03:27:58;18.40;99.90
69901;DHT22;57183;50.930;5.406;2022-08-03T03:30:25;18.40;99.90
69901;DHT22;57183;50.930;5.406;2022-08-03T03:32:51;18.30;99.90
69901;DHT22;57183;50.930;5.406;2022-08-03T03:35:17;18.30;99.90
69901;DHT22;57183;50.930;5.406;2022-08-03T03:37:43;18.20;99.90
69901;DHT22;57183;50.930;5.406;2022-08-03T03:40:09;18.10;99.90
69901;DHT22;57183;50.930;5.406;2022-08-03T03:42:35;18.10;99.90
69901;DHT22;57183;50.930;5.406;2022-08-03T03:45:03;18.20;99.90
69901;DHT22;57183;50.930;5.406;2022-08-03T03:47:30;18.20;99.90
69901;DHT22;57183;50.930;5.406;2022-08-03T03:49:56;18.20;99.90
69901;DHT22;57183;50.930;5.406;2022-08-03T03:52:22;18.20;99.90
69901;DHT22;57183;50.930;5.406;2022-08-03T03:54:48;18.20;99.90
69901;DHT22;57183;50.930;5.406;2022-08-03T03:57:14;18.20;99.90
69901;DHT22;57183;50.930;5.406;2022-08-03T03:59:41;18.10;99.90
69901;DHT22;57183;50.930;5.406;2022-08-03T04:02:08;18.10;99.90
69901;DHT22;57183;50.930;5.406;2022-08-03T04:04:35;18.00;99.90
69901;DHT22;57183;50.930;5.406;2022-08-03T04:07:22;18.00;99.90
69901;DHT22;57183;50.930;5.406;2022-08-03T04:10:13;17.90;99.90
69901;DHT22;57183;50.930;5.406;2022-08-03T04:13:01;17.80;99.90
69901;DHT22;57183;50.930;5.406;2022-08-03T04:15:30;17.70;99.90
69901;DHT22;57183;50.930;5.406;2022-08-03T04:17:58;17.70;99.90
69901;DHT22;57183;50.930;5.406;2022-08-03T04:20:27;17.80;99.90
69901;DHT22;57183;50.930;5.406;2022-08-03T04:22:55;17.80;99.90
69901;DHT22;57183;50.930;5.406;2022-08-03T04:25:26;17.80;99.90
69901;DHT22;57183;50.930;5.406;2022-08-03T04:27:53;17.70;99.90
69901;DHT22;57183;50.930;5.406;2022-08-03T04:30:23;17.70;99.90
69901;DHT22;57183;50.930;5.406;2022-08-03T04:32:50;17.80;99.90
69901;DHT22;57183;50.930;5.406;2022-08-03T04:35:17;17.80;99.90
69901;DHT22;57183;50.930;5.406;2022-08-03T04:37:45;17.90;99.90
69901;DHT22;57183;50.930;5.406;2022-08-03T04:40:15;17.80;99.90
69901;DHT22;57183;50.930;5.406;2022-08-03T04:42:44;17.80;99.90
69901;DHT22;57183;50.930;5.406;2022-08-03T04:45:14;17.70;99.90
69901;DHT22;57183;50.930;5.406;2022-08-03T04:47:41;17.80;99.90
69901;DHT22;57183;50.930;5.406;2022-08-03T04:50:07;17.80;99.90
69901;DHT22;57183;50.930;5.406;2022-08-03T04:52:34;17.80;99.90
69901;DHT22;57183;50.930;5.406;2022-08-03T04:54:59;17.90;99.90
69901;DHT22;57183;50.930;5.406;2022-08-03T04:57:25;17.80;99.90
69901;DHT22;57183;50.930;5.406;2022-08-03T04:59:52;17.90;99.90
69901;DHT22;57183;50.930;5.406;2022-08-03T05:02:21;17.90;99.90
69901;DHT22;57183;50.930;5.406;2022-08-03T05:04:47;18.00;99.90
69901;DHT22;57183;50.930;5.406;2022-08-03T05:07:14;18.00;99.90
69901;DHT22;57183;50.930;5.406;2022-08-03T05:09:41;18.10;99.90
69901;DHT22;57183;50.930;5.406;2022-08-03T05:12:07;18.00;99.90
69901;DHT22;57183;50.930;5.406;2022-08-03T05:14:33;18.00;99.90
69901;DHT22;57183;50.930;5.406;2022-08-03T05:17:01;18.10;99.90
69901;DHT22;57183;50.930;5.406;2022-08-03T05:19:27;18.20;99.90
69901;DHT22;57183;50.930;5.406;2022-08-03T05:21:53;18.20;99.90
69901;DHT22;57183;50.930;5.406;2022-08-03T05:24:19;18.30;99.90
69901;DHT22;57183;50.930;5.406;2022-08-03T05:26:44;18.30;99.90
69901;DHT22;57183;50.930;5.406;2022-08-03T05:29:10;18.40;99.90
69901;DHT22;57183;50.930;5.406;2022-08-03T05:31:35;18.50;99.90
69901;DHT22;57183;50.930;5.406;2022-08-03T05:34:01;18.60;99.90
69901;DHT22;57183;50.930;5.406;2022-08-03T05:36:27;18.70;99.90
69901;DHT22;57183;50.930;5.406;2022-08-03T05:38:52;18.90;99.90
69901;DHT22;57183;50.930;5.406;2022-08-03T05:41:18;19.00;99.90
69901;DHT22;57183;50.930;5.406;2022-08-03T05:43:44;19.10;99.90
69901;DHT22;57183;50.930;5.406;2022-08-03T05:46:10;19.20;99.90
69901;DHT22;57183;50.930;5.406;2022-08-03T05:48:36;19.30;99.90
69901;DHT22;57183;50.930;5.406;2022-08-03T05:51:01;19.40;99.90
69901;DHT22;57183;50.930;5.406;2022-08-03T05:53:32;19.40;99.90
69901;DHT22;57183;50.930;5.406;2022-08-03T05:55:58;19.50;99.90
69901;DHT22;57183;50.930;5.406;2022-08-03T05:58:24;19.60;99.90
69901;DHT22;57183;50.930;5.406;2022-08-03T06:00:49;19.70;99.90
69901;DHT22;57183;50.930;5.406;2022-08-03T06:03:15;19.90;99.90
69901;DHT22;57183;50.930;5.406;2022-08-03T06:05:41;20.20;99.90
69901;DHT22;57183;50.930;5.406;2022-08-03T06:08:06;20.50;99.90
69901;DHT22;57183;50.930;5.406;2022-08-03T06:10:32;20.70;99.90
69901;DHT22;57183;50.930;5.406;2022-08-03T06:12:58;20.80;99.90
69901;DHT22;57183;50.930;5.406;2022-08-03T06:15:23;21.00;99.90
69901;DHT22;57183;50.930;5.406;2022-08-03T06:17:50;21.30;99.90
69901;DHT22;57183;50.930;5.406;2022-08-03T06:20:17;21.50;99.90
69901;DHT22;57183;50.930;5.406;2022-08-03T06:22:44;21.70;99.90
69901;DHT22;57183;50.930;5.406;2022-08-03T06:25:10;21.80;99.90
69901;DHT22;57183;50.930;5.406;2022-08-03T06:27:35;21.90;99.90
69901;DHT22;57183;50.930;5.406;2022-08-03T06:30:05;22.00;99.90
69901;DHT22;57183;50.930;5.406;2022-08-03T06:32:32;22.20;99.90
69901;DHT22;57183;50.930;5.406;2022-08-03T06:34:59;22.30;99.90
69901;DHT22;57183;50.930;5.406;2022-08-03T06:37:24;22.50;99.90
69901;DHT22;57183;50.930;5.406;2022-08-03T06:39:52;22.60;99.90
69901;DHT22;57183;50.930;5.406;2022-08-03T06:42:18;22.80;99.90
69901;DHT22;57183;50.930;5.406;2022-08-03T06:44:44;23.00;99.90
69901;DHT22;57183;50.930;5.406;2022-08-03T06:47:09;23.20;99.90
69901;DHT22;57183;50.930;5.406;2022-08-03T06:49:35;23.40;99.90
69901;DHT22;57183;50.930;5.406;2022-08-03T06:52:01;23.50;99.90
69901;DHT22;57183;50.930;5.406;2022-08-03T06:54:27;23.70;99.90
69901;DHT22;57183;50.930;5.406;2022-08-03T06:56:53;23.80;99.90
69901;DHT22;57183;50.930;5.406;2022-08-03T06:59:19;24.00;99.90
69901;DHT22;57183;50.930;5.406;2022-08-03T07:01:44;24.30;99.90
69901;DHT22;57183;50.930;5.406;2022-08-03T07:04:10;24.30;99.90
69901;DHT22;57183;50.930;5.406;2022-08-03T07:06:37;24.40;99.90
69901;DHT22;57183;50.930;5.406;2022-08-03T07:09:03;24.50;99.90
69901;DHT22;57183;50.930;5.406;2022-08-03T07:11:29;24.70;99.90
69901;DHT22;57183;50.930;5.406;2022-08-03T07:13:55;24.80;99.90
69901;DHT22;57183;50.930;5.406;2022-08-03T07:16:21;24.90;99.90
69901;DHT22;57183;50.930;5.406;2022-08-03T07:18:47;25.00;99.90
69901;DHT22;57183;50.930;5.406;2022-08-03T07:21:13;25.00;99.90
69901;DHT22;57183;50.930;5.406;2022-08-03T07:23:40;25.10;99.90
69901;DHT22;57183;50.930;5.406;2022-08-03T07:26:06;25.20;99.90
69901;DHT22;57183;50.930;5.406;2022-08-03T07:28:31;25.30;99.90
69901;DHT22;57183;50.930;5.406;2022-08-03T07:30:57;25.40;99.90
69901;DHT22;57183;50.930;5.406;2022-08-03T07:33:23;25.40;99.90
69901;DHT22;57183;50.930;5.406;2022-08-03T07:35:49;25.50;99.90
69901;DHT22;57183;50.930;5.406;2022-08-03T07:38:15;25.70;99.90
69901;DHT22;57183;50.930;5.406;2022-08-03T07:40:41;25.60;99.90
69901;DHT22;57183;50.930;5.406;2022-08-03T07:43:06;25.70;99.40
69901;DHT22;57183;50.930;5.406;2022-08-03T07:45:32;25.70;99.50
69901;DHT22;57183;50.930;5.406;2022-08-03T07:47:58;25.70;99.00
69901;DHT22;57183;50.930;5.406;2022-08-03T07:50:24;25.50;99.40
69901;DHT22;57183;50.930;5.406;2022-08-03T07:52:50;25.40;98.70
69901;DHT22;57183;50.930;5.406;2022-08-03T07:55:21;25.50;99.00
69901;DHT22;57183;50.930;5.406;2022-08-03T07:58:07;25.60;99.50
69901;DHT22;57183;50.930;5.406;2022-08-03T08:00:34;25.80;99.10
69901;DHT22;57183;50.930;5.406;2022-08-03T08:03:01;25.80;98.30
69901;DHT22;57183;50.930;5.406;2022-08-03T08:05:27;25.80;98.30
69901;DHT22;57183;50.930;5.406;2022-08-03T08:07:53;25.90;98.30
69901;DHT22;57183;50.930;5.406;2022-08-03T08:10:19;25.90;97.30
69901;DHT22;57183;50.930;5.406;2022-08-03T08:12:45;25.90;97.40
69901;DHT22;57183;50.930;5.406;2022-08-03T08:15:11;26.10;97.40
69901;DHT22;57183;50.930;5.406;2022-08-03T08:17:58;26.10;97.40
69901;DHT22;57183;50.930;5.406;2022-08-03T08:20:29;26.10;96.00
69901;DHT22;57183;50.930;5.406;2022-08-03T08:23:00;26.20;95.80
69901;DHT22;57183;50.930;5.406;2022-08-03T08:25:26;26.10;95.70
69901;DHT22;57183;50.930;5.406;2022-08-03T08:27:52;26.20;96.10
69901;DHT22;57183;50.930;5.406;2022-08-03T08:30:22;26.40;95.50
69901;DHT22;57183;50.930;5.406;2022-08-03T08:32:48;26.50;95.80
69901;DHT22;57183;50.930;5.406;2022-08-03T08:35:16;26.50;94.50
69901;DHT22;57183;50.930;5.406;2022-08-03T08:37:42;26.50;94.90
69901;DHT22;57183;50.930;5.406;2022-08-03T08:40:09;26.40;94.80
69901;DHT22;57183;50.930;5.406;2022-08-03T08:42:42;26.40;95.00
69901;DHT22;57183;50.930;5.406;2022-08-03T08:45:09;26.40;94.40
69901;DHT22;57183;50.930;5.406;2022-08-03T08:47:38;26.40;94.10
69901;DHT22;57183;50.930;5.406;2022-08-03T08:50:06;26.40;94.10
69901;DHT22;57183;50.930;5.406;2022-08-03T08:52:32;26.50;94.80
69901;DHT22;57183;50.930;5.406;2022-08-03T08:55:01;26.70;94.40
69901;DHT22;57183;50.930;5.406;2022-08-03T08:57:34;26.80;94.30
69901;DHT22;57183;50.930;5.406;2022-08-03T09:00:07;27.00;94.20
69901;DHT22;57183;50.930;5.406;2022-08-03T09:02:34;27.10;94.20
69901;DHT22;57183;50.930;5.406;2022-08-03T09:05:01;27.30;94.40
69901;DHT22;57183;50.930;5.406;2022-08-03T09:07:27;27.40;93.70
69901;DHT22;57183;50.930;5.406;2022-08-03T09:09:53;27.50;93.40
69901;DHT22;57183;50.930;5.406;2022-08-03T09:12:19;27.40;93.40
69901;DHT22;57183;50.930;5.406;2022-08-03T09:14:44;27.40;93.30
69901;DHT22;57183;50.930;5.406;2022-08-03T09:17:10;27.50;93.10
69901;DHT22;57183;50.930;5.406;2022-08-03T09:19:36;27.40;92.80
69901;DHT22;57183;50.930;5.406;2022-08-03T09:22:23;27.60;93.60
69901;DHT22;57183;50.930;5.406;2022-08-03T09:25:05;27.80;92.90
69901;DHT22;57183;50.930;5.406;2022-08-03T09:27:43;27.90;92.50
69901;DHT22;57183;50.930;5.406;2022-08-03T09:30:14;28.00;91.90
69901;DHT22;57183;50.930;5.406;2022-08-03T09:32:40;28.10;92.40
69901;DHT22;57183;50.930;5.406;2022-08-03T09:35:06;28.20;91.70
69901;DHT22;57183;50.930;5.406;2022-08-03T09:37:33;28.20;91.20
69901;DHT22;57183;50.930;5.406;2022-08-03T09:39:58;28.30;90.90
69901;DHT22;57183;50.930;5.406;2022-08-03T09:42:24;28.50;91.50
69901;DHT22;57183;50.930;5.406;2022-08-03T09:44:52;28.40;90.70
69901;DHT22;57183;50.930;5.406;2022-08-03T09:50:01;28.60;90.70
69901;DHT22;57183;50.930;5.406;2022-08-03T09:52:35;28.70;90.50
69901;DHT22;57183;50.930;5.406;2022-08-03T09:55:07;28.70;90.60
69901;DHT22;57183;50.930;5.406;2022-08-03T09:57:34;28.70;90.10
69901;DHT22;57183;50.930;5.406;2022-08-03T10:00:08;28.70;90.20
69901;DHT22;57183;50.930;5.406;2022-08-03T10:02:35;28.80;90.10
69901;DHT22;57183;50.930;5.406;2022-08-03T10:05:03;28.80;90.20
69901;DHT22;57183;50.930;5.406;2022-08-03T10:07:29;28.90;88.70
69901;DHT22;57183;50.930;5.406;2022-08-03T10:10:01;29.10;90.00
69901;DHT22;57183;50.930;5.406;2022-08-03T10:12:28;29.10;87.90
69901;DHT22;57183;50.930;5.406;2022-08-03T10:14:54;29.30;88.10
69901;DHT22;57183;50.930;5.406;2022-08-03T10:17:21;29.40;86.90
69901;DHT22;57183;50.930;5.406;2022-08-03T10:19:48;29.20;87.50
69901;DHT22;57183;50.930;5.406;2022-08-03T10:22:27;29.20;88.80
69901;DHT22;57183;50.930;5.406;2022-08-03T10:24:59;29.20;86.80
69901;DHT22;57183;50.930;5.406;2022-08-03T10:27:28;29.20;86.50
69901;DHT22;57183;50.930;5.406;2022-08-03T10:30:00;29.20;86.70
69901;DHT22;57183;50.930;5.406;2022-08-03T10:32:30;29.20;86.80
69901;DHT22;57183;50.930;5.406;2022-08-03T10:35:07;29.10;86.30
69901;DHT22;57183;50.930;5.406;2022-08-03T10:37:40;29.10;86.70
69901;DHT22;57183;50.930;5.406;2022-08-03T10:40:07;29.10;87.00
69901;DHT22;57183;50.930;5.406;2022-08-03T10:42:34;29.20;87.60
69901;DHT22;57183;50.930;5.406;2022-08-03T10:45:12;29.30;85.90
69901;DHT22;57183;50.930;5.406;2022-08-03T10:47:39;29.40;87.00
69901;DHT22;57183;50.930;5.406;2022-08-03T10:50:05;29.50;85.60
69901;DHT22;57183;50.930;5.406;2022-08-03T10:52:32;29.60;87.50
69901;DHT22;57183;50.930;5.406;2022-08-03T10:54:58;29.80;85.50
69901;DHT22;57183;50.930;5.406;2022-08-03T10:57:46;29.90;84.10
69901;DHT22;57183;50.930;5.406;2022-08-03T11:00:17;30.10;84.70
69901;DHT22;57183;50.930;5.406;2022-08-03T11:05:32;30.10;83.20
69901;DHT22;57183;50.930;5.406;2022-08-03T11:10:44;29.90;83.80
69901;DHT22;57183;50.930;5.406;2022-08-03T11:13:14;30.00;84.10
69901;DHT22;57183;50.930;5.406;2022-08-03T11:15:43;29.90;83.30
69901;DHT22;57183;50.930;5.406;2022-08-03T11:18:11;29.90;83.90
69901;DHT22;57183;50.930;5.406;2022-08-03T11:23:16;30.10;83.00
69901;DHT22;57183;50.930;5.406;2022-08-03T11:26:16;30.00;82.60
69901;DHT22;57183;50.930;5.406;2022-08-03T11:28:45;30.10;82.60
69901;DHT22;57183;50.930;5.406;2022-08-03T11:34:05;30.40;83.10
69901;DHT22;57183;50.930;5.406;2022-08-03T11:39:39;30.50;81.80
69901;DHT22;57183;50.930;5.406;2022-08-03T11:45:00;30.70;82.60
69901;DHT22;57183;50.930;5.406;2022-08-03T11:47:36;30.80;80.40
69901;DHT22;57183;50.930;5.406;2022-08-03T11:50:02;30.80;81.60
69901;DHT22;57183;50.930;5.406;2022-08-03T11:52:34;30.90;82.50
69901;DHT22;57183;50.930;5.406;2022-08-03T11:55:01;31.10;80.40
69901;DHT22;57183;50.930;5.406;2022-08-03T11:57:34;31.10;81.70
69901;DHT22;57183;50.930;5.406;2022-08-03T12:00:00;31.20;79.90
69901;DHT22;57183;50.930;5.406;2022-08-03T12:02:26;31.30;80.60
69901;DHT22;57183;50.930;5.406;2022-08-03T12:04:53;31.30;80.50
69901;DHT22;57183;50.930;5.406;2022-08-03T12:07:23;31.30;79.80
69901;DHT22;57183;50.930;5.406;2022-08-03T12:12:33;31.40;79.80
69901;DHT22;57183;50.930;5.406;2022-08-03T12:14:59;31.50;79.70
69901;DHT22;57183;50.930;5.406;2022-08-03T12:17:35;31.70;79.20
69901;DHT22;57183;50.930;5.406;2022-08-03T12:20:03;31.60;79.60
69901;DHT22;57183;50.930;5.406;2022-08-03T12:22:32;31.70;79.80
69901;DHT22;57183;50.930;5.406;2022-08-03T12:24:58;31.60;77.60
69901;DHT22;57183;50.930;5.406;2022-08-03T12:27:25;31.50;78.70
69901;DHT22;57183;50.930;5.406;2022-08-03T12:29:53;31.30;78.50
69901;DHT22;57183;50.930;5.406;2022-08-03T12:32:20;31.30;78.60
69901;DHT22;57183;50.930;5.406;2022-08-03T12:34:46;31.20;77.90
69901;DHT22;57183;50.930;5.406;2022-08-03T12:37:12;31.20;79.10
69901;DHT22;57183;50.930;5.406;2022-08-03T12:39:38;31.00;78.60
69901;DHT22;57183;50.930;5.406;2022-08-03T12:42:04;31.10;79.40
69901;DHT22;57183;50.930;5.406;2022-08-03T12:44:32;31.20;78.90
69901;DHT22;57183;50.930;5.406;2022-08-03T12:47:00;31.40;79.50
69901;DHT22;57183;50.930;5.406;2022-08-03T12:49:26;31.50;78.20
69901;DHT22;57183;50.930;5.406;2022-08-03T12:54:21;32.00;75.80
69901;DHT22;57183;50.930;5.406;2022-08-03T12:57:04;32.10;76.30
69901;DHT22;57183;50.930;5.406;2022-08-03T12:59:41;32.40;75.50
69901;DHT22;57183;50.930;5.406;2022-08-03T13:02:15;32.60;74.60
69901;DHT22;57183;50.930;5.406;2022-08-03T13:04:41;32.70;74.30
69901;DHT22;57183;50.930;5.406;2022-08-03T13:07:08;32.60;72.30
69901;DHT22;57183;50.930;5.406;2022-08-03T13:09:44;32.60;72.40
69901;DHT22;57183;50.930;5.406;2022-08-03T13:12:20;32.60;73.20
69901;DHT22;57183;50.930;5.406;2022-08-03T13:14:48;32.50;72.30
69901;DHT22;57183;50.930;5.406;2022-08-03T13:17:14;32.10;73.70
69901;DHT22;57183;50.930;5.406;2022-08-03T13:19:41;32.10;74.10
69901;DHT22;57183;50.930;5.406;2022-08-03T13:24:36;32.60;73.00
69901;DHT22;57183;50.930;5.406;2022-08-03T13:27:02;32.90;71.70
69901;DHT22;57183;50.930;5.406;2022-08-03T13:29:30;32.90;71.10
69901;DHT22;57183;50.930;5.406;2022-08-03T13:31:56;32.90;73.00
69901;DHT22;57183;50.930;5.406;2022-08-03T13:34:22;32.80;71.90
69901;DHT22;57183;50.930;5.406;2022-08-03T13:36:47;32.90;70.70
69901;DHT22;57183;50.930;5.406;2022-08-03T13:39:13;32.80;69.30
69901;DHT22;57183;50.930;5.406;2022-08-03T13:41:39;32.80;70.40
69901;DHT22;57183;50.930;5.406;2022-08-03T13:44:04;32.50;72.20
69901;DHT22;57183;50.930;5.406;2022-08-03T13:46:30;32.40;71.40
69901;DHT22;57183;50.930;5.406;2022-08-03T13:48:55;32.60;71.90
69901;DHT22;57183;50.930;5.406;2022-08-03T13:51:21;32.70;70.90
69901;DHT22;57183;50.930;5.406;2022-08-03T13:53:48;32.80;69.50
69901;DHT22;57183;50.930;5.406;2022-08-03T13:56:13;33.10;70.10
69901;DHT22;57183;50.930;5.406;2022-08-03T13:58:39;33.20;69.20
69901;DHT22;57183;50.930;5.406;2022-08-03T14:01:05;33.10;68.50
69901;DHT22;57183;50.930;5.406;2022-08-03T14:03:30;33.10;69.80
69901;DHT22;57183;50.930;5.406;2022-08-03T14:05:56;33.00;69.50
69901;DHT22;57183;50.930;5.406;2022-08-03T14:08:22;33.40;69.20
69901;DHT22;57183;50.930;5.406;2022-08-03T14:10:47;34.50;68.80
69901;DHT22;57183;50.930;5.406;2022-08-03T14:13:13;34.80;66.40
69901;DHT22;57183;50.930;5.406;2022-08-03T14:15:40;34.60;65.80
69901;DHT22;57183;50.930;5.406;2022-08-03T14:18:07;36.20;64.00
69901;DHT22;57183;50.930;5.406;2022-08-03T14:20:33;37.90;60.10
69901;DHT22;57183;50.930;5.406;2022-08-03T14:22:58;40.00;57.20
69901;DHT22;57183;50.930;5.406;2022-08-03T14:25:24;40.50;54.90
69901;DHT22;57183;50.930;5.406;2022-08-03T14:27:49;41.20;53.20
69901;DHT22;57183;50.930;5.406;2022-08-03T14:30:15;41.90;52.00
69901;DHT22;57183;50.930;5.406;2022-08-03T14:32:41;43.20;50.20
69901;DHT22;57183;50.930;5.406;2022-08-03T14:35:07;44.00;48.10
69901;DHT22;57183;50.930;5.406;2022-08-03T14:37:33;44.10;45.20
69901;DHT22;57183;50.930;5.406;2022-08-03T14:39:59;44.00;46.40
69901;DHT22;57183;50.930;5.406;2022-08-03T14:42:24;44.50;45.00
69901;DHT22;57183;50.930;5.406;2022-08-03T14:44:50;44.40;43.70
69901;DHT22;57183;50.930;5.406;2022-08-03T14:47:16;43.60;43.90
69901;DHT22;57183;50.930;5.406;2022-08-03T14:49:41;43.30;44.00
69901;DHT22;57183;50.930;5.406;2022-08-03T14:52:07;42.40;43.90
69901;DHT22;57183;50.930;5.406;2022-08-03T14:54:33;41.90;45.10
69901;DHT22;57183;50.930;5.406;2022-08-03T14:56:59;41.80;45.50
69901;DHT22;57183;50.930;5.406;2022-08-03T14:59:25;41.20;45.10
69901;DHT22;57183;50.930;5.406;2022-08-03T15:01:51;41.20;46.00
69901;DHT22;57183;50.930;5.406;2022-08-03T15:04:17;41.80;45.60
69901;DHT22;57183;50.930;5.406;2022-08-03T15:06:43;43.00;44.90
69901;DHT22;57183;50.930;5.406;2022-08-03T15:09:08;42.60;43.70
69901;DHT22;57183;50.930;5.406;2022-08-03T15:11:34;42.30;43.40
69901;DHT22;57183;50.930;5.406;2022-08-03T15:14:01;41.80;44.00
69901;DHT22;57183;50.930;5.406;2022-08-03T15:16:26;40.20;45.50
69901;DHT22;57183;50.930;5.406;2022-08-03T15:18:52;39.80;46.70
69901;DHT22;57183;50.930;5.406;2022-08-03T15:21:18;39.80;46.70
69901;DHT22;57183;50.930;5.406;2022-08-03T15:23:43;39.70;47.00
69901;DHT22;57183;50.930;5.406;2022-08-03T15:26:09;39.90;46.90
69901;DHT22;57183;50.930;5.406;2022-08-03T15:28:35;39.60;47.30
69901;DHT22;57183;50.930;5.406;2022-08-03T15:31:00;38.50;48.30
69901;DHT22;57183;50.930;5.406;2022-08-03T15:33:27;38.70;48.80
69901;DHT22;57183;50.930;5.406;2022-08-03T15:35:53;39.40;47.20
69901;DHT22;57183;50.930;5.406;2022-08-03T15:38:19;39.80;46.70
69901;DHT22;57183;50.930;5.406;2022-08-03T15:40:47;39.00;47.80
69901;DHT22;57183;50.930;5.406;2022-08-03T15:43:13;39.10;48.10
69901;DHT22;57183;50.930;5.406;2022-08-03T15:45:39;39.90;47.10
69901;DHT22;57183;50.930;5.406;2022-08-03T15:48:05;40.70;46.00
69901;DHT22;57183;50.930;5.406;2022-08-03T15:50:31;41.30;44.60
69901;DHT22;57183;50.930;5.406;2022-08-03T15:52:57;41.40;45.20
69901;DHT22;57183;50.930;5.406;2022-08-03T15:55:22;40.60;44.60
69901;DHT22;57183;50.930;5.406;2022-08-03T15:57:48;40.50;45.90
69901;DHT22;57183;50.930;5.406;2022-08-03T16:00:14;41.10;45.30
69901;DHT22;57183;50.930;5.406;2022-08-03T16:02:40;41.50;45.20
69901;DHT22;57183;50.930;5.406;2022-08-03T16:05:06;42.30;43.80
69901;DHT22;57183;50.930;5.406;2022-08-03T16:07:32;42.50;43.30
69901;DHT22;57183;50.930;5.406;2022-08-03T16:10:17;43.20;42.90
69901;DHT22;57183;50.930;5.406;2022-08-03T16:12:43;44.60;42.20